createdAt,value
2022-08-18T00:00:03.345Z,6.75
2022-08-18T00:02:32.762Z,8.05
2022-08-18T00:05:00.837Z,8.32
2022-08-18T00:07:32.752Z,12.20
2022-08-18T00:12:33.496Z,8.27
2022-08-18T00:15:04.701Z,6.90
2022-08-18T00:17:34.648Z,6.88
2022-08-18T00:20:03.122Z,8.30
2022-08-18T00:22:31.011Z,7.72
2022-08-18T00:27:29.749Z,5.57
2022-08-18T00:30:00.229Z,11.32
2022-08-18T00:32:33.538Z,7.68
2022-08-18T00:37:38.628Z,9.45
2022-08-18T00:40:09.427Z,8.02
2022-08-18T00:42:43.873Z,5.72
2022-08-18T00:45:15.421Z,6.25
2022-08-18T00:47:43.455Z,6.30
2022-08-18T00:50:18.626Z,6.85
2022-08-18T00:52:51.067Z,6.95
2022-08-18T00:55:20.003Z,6.18
2022-08-18T00:57:50.885Z,9.40
2022-08-18T01:00:19.479Z,8.43
2022-08-18T01:05:28.459Z,7.75
2022-08-18T01:07:56.492Z,6.38
2022-08-18T01:10:25.637Z,6.47
2022-08-18T01:12:56.048Z,7.57
2022-08-18T01:15:29.037Z,6.70
2022-08-18T01:18:16.697Z,6.28
2022-08-18T01:21:11.257Z,7.55
2022-08-18T01:23:41.479Z,11.32
2022-08-18T01:28:40.879Z,7.72
2022-08-18T01:33:42.245Z,9.00
2022-08-18T01:36:16.503Z,8.77
2022-08-18T01:41:26.357Z,9.10
2022-08-18T01:46:27.430Z,10.38
2022-08-18T01:48:55.353Z,8.60
2022-08-18T01:51:38.889Z,6.88
2022-08-18T01:54:12.657Z,9.20
2022-08-18T01:56:42.315Z,7.60
2022-08-18T01:59:13.703Z,7.97
2022-08-18T02:01:50.439Z,8.45
2022-08-18T02:04:41.360Z,8.07
2022-08-18T02:09:43.194Z,7.53
2022-08-18T02:12:12.283Z,11.30
2022-08-18T02:14:40.817Z,7.80
2022-08-18T02:17:11.120Z,8.00
2022-08-18T02:19:40.909Z,9.90
2022-08-18T02:22:09.965Z,6.55
2022-08-18T02:24:38.444Z,6.68
2022-08-18T02:27:08.759Z,8.20
2022-08-18T02:29:37.547Z,8.73
2022-08-18T02:32:06.891Z,7.72
2022-08-18T02:34:34.926Z,6.88
2022-08-18T02:37:03.408Z,11.38
2022-08-18T02:39:31.679Z,7.57
2022-08-18T02:41:59.686Z,13.25
2022-08-18T02:44:28.886Z,7.72
2022-08-18T02:46:56.798Z,8.30
2022-08-18T02:49:25.480Z,6.05
2022-08-18T02:51:54.184Z,7.22
2022-08-18T02:54:24.131Z,7.25
2022-08-18T02:56:54.063Z,6.85
2022-08-18T02:59:25.311Z,8.68
2022-08-18T03:01:56.642Z,7.68
2022-08-18T03:04:29.822Z,7.03
2022-08-18T03:07:02.072Z,7.15
2022-08-18T03:09:30.837Z,9.57
2022-08-18T03:11:59.855Z,5.32
2022-08-18T03:14:28.191Z,7.28
2022-08-18T03:16:58.236Z,6.75
2022-08-18T03:19:28.481Z,6.93
2022-08-18T03:21:59.395Z,5.72
2022-08-18T03:24:32.915Z,8.32
2022-08-18T03:27:02.374Z,7.97
2022-08-18T03:29:32.726Z,6.68
2022-08-18T03:37:00.855Z,10.00
2022-08-18T03:39:29.834Z,6.75
2022-08-18T03:42:01.573Z,6.85
2022-08-18T03:44:31.539Z,8.38
2022-08-18T03:47:00.408Z,9.43
2022-08-18T03:49:29.785Z,5.78
2022-08-18T03:54:31.134Z,7.30
2022-08-18T03:57:00.275Z,9.50
2022-08-18T03:59:30.735Z,7.95
2022-08-18T04:01:58.858Z,6.45
2022-08-18T04:04:29.641Z,6.97
2022-08-18T04:07:00.174Z,7.43
2022-08-18T04:09:30.844Z,6.30
2022-08-18T04:12:03.639Z,8.93
2022-08-18T04:14:32.811Z,7.75
2022-08-18T04:17:00.956Z,6.53
2022-08-18T04:19:31.055Z,7.22
2022-08-18T04:21:59.094Z,6.35
2022-08-18T04:27:01.114Z,8.43
2022-08-18T04:29:29.639Z,7.57
2022-08-18T04:31:57.775Z,7.20
2022-08-18T04:34:25.616Z,8.13
2022-08-18T04:36:54.795Z,10.02
2022-08-18T04:39:24.107Z,9.23
2022-08-18T04:41:52.573Z,8.50
2022-08-18T04:44:21.767Z,8.45
2022-08-18T04:46:52.220Z,8.07
2022-08-18T04:49:21.667Z,9.52
2022-08-18T04:52:34.278Z,9.40
2022-08-18T04:54:54.752Z,9.88
2022-08-18T04:57:23.161Z,7.97
2022-08-18T04:59:52.541Z,9.07
2022-08-18T05:02:22.585Z,8.35
2022-08-18T05:04:52.565Z,11.15
2022-08-18T05:07:23.695Z,10.70
2022-08-18T05:09:52.071Z,10.80
2022-08-18T05:12:25.991Z,10.27
2022-08-18T05:14:57.419Z,10.32
2022-08-18T05:17:30.400Z,11.20
2022-08-18T05:22:31.111Z,9.93
2022-08-18T05:25:04.427Z,8.02
2022-08-18T05:30:04.582Z,10.00
2022-08-18T05:32:47.859Z,9.35
2022-08-18T05:35:21.443Z,8.88
2022-08-18T05:38:04.646Z,8.27
2022-08-18T05:40:33.071Z,10.48
2022-08-18T05:43:03.395Z,13.38
2022-08-18T05:45:31.439Z,9.40
2022-08-18T05:48:01.609Z,9.43
2022-08-18T05:50:33.176Z,11.18
2022-08-18T05:53:13.349Z,9.27
2022-08-18T05:56:03.743Z,7.57
2022-08-18T05:58:36.663Z,8.82
2022-08-18T06:01:08.984Z,8.13
2022-08-18T06:03:45.151Z,12.98
2022-08-18T06:06:20.900Z,10.85
2022-08-18T06:08:57.446Z,9.23
2022-08-18T06:11:25.891Z,12.18
2022-08-18T06:13:59.538Z,8.98
2022-08-18T06:16:41.726Z,10.70
2022-08-18T06:19:28.078Z,11.77
2022-08-18T06:22:04.696Z,17.35
2022-08-18T06:24:39.655Z,12.13
2022-08-18T06:27:16.197Z,14.15
2022-08-18T06:29:58.248Z,12.90
2022-08-18T06:32:36.851Z,13.70
2022-08-18T06:35:18.239Z,13.07
2022-08-18T06:38:13.857Z,12.30
2022-08-18T06:40:41.897Z,11.77
2022-08-18T06:43:15.811Z,11.15
2022-08-18T06:45:52.217Z,10.27
2022-08-18T06:48:28.359Z,12.43
2022-08-18T06:53:53.701Z,10.57
2022-08-18T06:56:26.883Z,14.10
2022-08-18T06:58:55.394Z,11.60
2022-08-18T07:01:26.317Z,11.45
2022-08-18T07:03:58.299Z,10.23
2022-08-18T07:06:30.952Z,10.07
2022-08-18T07:09:20.585Z,13.65
2022-08-18T07:12:01.180Z,12.68
2022-08-18T07:14:29.078Z,12.52
2022-08-18T07:17:12.909Z,12.82
2022-08-18T07:19:41.436Z,13.90
2022-08-18T07:22:11.777Z,12.18
2022-08-18T07:24:42.681Z,15.18
2022-08-18T07:27:13.249Z,10.45
2022-08-18T07:32:34.492Z,14.88
2022-08-18T07:35:08.329Z,13.93
2022-08-18T07:37:42.127Z,11.98
2022-08-18T07:40:20.993Z,13.55
2022-08-18T07:43:01.268Z,13.35
2022-08-18T07:45:35.723Z,11.07
2022-08-18T07:48:34.970Z,12.73
2022-08-18T07:53:55.760Z,14.25
2022-08-18T07:56:34.872Z,13.73
2022-08-18T07:59:10.519Z,12.18
2022-08-18T08:01:45.244Z,11.13
2022-08-18T08:04:26.342Z,13.35
2022-08-18T08:07:22.900Z,13.32
2022-08-18T08:09:58.230Z,13.48
2022-08-18T08:12:34.607Z,13.05
2022-08-18T08:15:13.689Z,15.93
2022-08-18T08:17:54.233Z,13.93
2022-08-18T08:20:32.935Z,14.48
2022-08-18T08:23:17.387Z,10.32
2022-08-18T08:26:00.708Z,12.32
2022-08-18T08:31:35.914Z,11.43
2022-08-18T08:34:06.641Z,11.45
2022-08-18T08:36:40.050Z,15.45
2022-08-18T08:39:13.504Z,16.88
2022-08-18T08:41:45.931Z,12.27
2022-08-18T08:44:21.524Z,12.23
2022-08-18T08:46:56.515Z,11.43
2022-08-18T08:49:33.743Z,13.30
2022-08-18T08:52:12.134Z,12.82
2022-08-18T08:54:46.790Z,15.27
2022-08-18T08:57:17.326Z,14.00
2022-08-18T08:59:47.796Z,11.20
2022-08-18T09:02:47.926Z,13.10
2022-08-18T09:05:21.074Z,10.55
2022-08-18T09:08:22.219Z,15.27
2022-08-18T09:11:23.350Z,11.95
2022-08-18T09:14:27.094Z,12.25
2022-08-18T09:17:12.066Z,10.45
2022-08-18T09:20:09.391Z,13.10
2022-08-18T09:22:47.927Z,13.27
2022-08-18T09:25:34.044Z,13.23
2022-08-18T09:28:12.629Z,12.70
2022-08-18T09:30:47.608Z,15.68
2022-08-18T09:33:34.715Z,13.93
2022-08-18T09:36:25.836Z,16.35
2022-08-18T09:39:18.518Z,15.85
2022-08-18T09:41:54.416Z,14.30
2022-08-18T09:45:05.018Z,19.23
2022-08-18T09:48:02.945Z,13.93
2022-08-18T09:51:18.262Z,13.88
2022-08-18T09:54:13.655Z,14.00
2022-08-18T09:57:08.636Z,15.10
2022-08-18T09:59:59.668Z,14.13
2022-08-18T10:03:06.210Z,17.45
2022-08-18T10:05:36.599Z,12.57
2022-08-18T10:08:35.282Z,15.20
2022-08-18T10:11:24.402Z,14.55
2022-08-18T10:14:08.281Z,15.73
2022-08-18T10:17:16.016Z,12.48
2022-08-18T10:19:48.959Z,19.48
2022-08-18T10:22:39.581Z,12.70
2022-08-18T10:25:22.994Z,14.10
2022-08-18T10:27:59.505Z,12.77
2022-08-18T10:31:09.772Z,13.38
2022-08-18T10:33:59.792Z,11.93
2022-08-18T10:37:01.731Z,9.98
2022-08-18T10:39:46.538Z,12.38
2022-08-18T10:45:07.676Z,12.35
2022-08-18T10:47:39.291Z,10.52
2022-08-18T10:50:19.635Z,11.05
2022-08-18T10:56:04.120Z,11.10
2022-08-18T10:58:45.470Z,12.18
2022-08-18T11:01:30.990Z,9.55
2022-08-18T11:04:14.514Z,11.80
2022-08-18T11:07:07.870Z,13.02
2022-08-18T11:15:48.001Z,11.00
2022-08-18T11:18:32.078Z,9.65
2022-08-18T11:24:16.100Z,12.77
2022-08-18T11:26:58.900Z,10.27
2022-08-18T11:29:32.149Z,12.27
2022-08-18T11:34:45.451Z,12.05
2022-08-18T11:37:25.610Z,9.75
2022-08-18T11:42:31.167Z,14.02
2022-08-18T11:45:07.898Z,8.07
2022-08-18T11:47:39.008Z,10.27
2022-08-18T11:50:12.501Z,9.93
2022-08-18T11:52:54.021Z,9.52
2022-08-18T11:55:31.861Z,10.50
2022-08-18T11:58:02.436Z,8.35
2022-08-18T12:00:53.584Z,9.35
2022-08-18T12:06:27.094Z,12.68
2022-08-18T12:09:00.482Z,9.23
2022-08-18T12:11:31.445Z,11.65
2022-08-18T12:14:30.773Z,12.85
2022-08-18T12:16:59.763Z,10.55
2022-08-18T12:19:31.064Z,10.55
2022-08-18T12:22:01.574Z,9.88
2022-08-18T12:24:36.797Z,10.00
2022-08-18T12:27:20.336Z,14.38
2022-08-18T12:29:52.196Z,13.38
2022-08-18T12:40:32.567Z,11.43
2022-08-18T12:45:31.140Z,11.10
2022-08-18T12:48:04.416Z,8.68
2022-08-18T12:53:06.124Z,12.95
2022-08-18T13:03:09.773Z,9.23
2022-08-18T13:05:38.405Z,9.68
2022-08-18T13:08:12.456Z,9.50
2022-08-18T13:10:45.461Z,10.20
2022-08-18T13:13:14.253Z,8.77
2022-08-18T13:18:28.580Z,9.38
2022-08-18T13:23:25.636Z,8.35
2022-08-18T13:26:01.406Z,7.85
2022-08-18T13:33:33.835Z,5.85
2022-08-18T13:36:09.862Z,7.80
2022-08-18T13:41:06.443Z,6.97
2022-08-18T13:46:09.955Z,7.18
2022-08-18T13:58:53.318Z,7.05
2022-08-18T14:01:45.317Z,6.85
2022-08-18T14:06:46.787Z,7.40
2022-08-18T14:09:27.681Z,6.90
2022-08-18T14:17:17.064Z,8.20
2022-08-18T14:20:04.637Z,9.45
2022-08-18T14:22:50.382Z,10.40
2022-08-18T14:28:04.541Z,7.25
2022-08-18T14:30:33.472Z,7.88
2022-08-18T14:33:03.052Z,6.88
2022-08-18T14:36:04.378Z,6.68
2022-08-18T14:40:49.410Z,8.93
2022-08-18T14:45:53.832Z,10.98
2022-08-18T14:53:29.290Z,7.43
2022-08-18T15:00:58.224Z,7.05
2022-08-18T15:03:31.565Z,7.40
2022-08-18T15:08:35.405Z,8.50
2022-08-18T15:11:06.223Z,11.95
2022-08-18T15:13:41.441Z,7.22
2022-08-18T15:16:13.484Z,6.80
2022-08-18T15:26:57.880Z,7.97
2022-08-18T15:34:31.621Z,7.68
2022-08-18T15:37:09.922Z,7.03
2022-08-18T15:39:37.992Z,7.35
2022-08-18T15:44:39.851Z,7.82
2022-08-18T15:47:12.627Z,6.35
2022-08-18T15:49:41.809Z,8.13
2022-08-18T15:54:42.344Z,19.63
2022-08-18T16:00:02.259Z,7.10
2022-08-18T16:02:30.187Z,7.30
2022-08-18T16:05:09.206Z,5.90
2022-08-18T16:10:10.452Z,7.85
2022-08-18T16:12:38.294Z,9.55
2022-08-18T16:17:43.058Z,6.78
2022-08-18T16:25:16.555Z,8.05
2022-08-18T16:27:45.439Z,8.35
2022-08-18T16:37:42.333Z,8.43
2022-08-18T16:40:10.765Z,8.25
2022-08-18T16:42:38.762Z,8.98
2022-08-18T16:45:08.959Z,10.40
2022-08-18T16:47:38.978Z,9.63
2022-08-18T16:55:08.656Z,12.23
2022-08-18T17:00:42.443Z,12.65
2022-08-18T17:03:29.450Z,13.05
2022-08-18T17:06:01.651Z,11.43
2022-08-18T17:08:29.636Z,9.95
2022-08-18T17:10:58.821Z,10.23
2022-08-18T17:13:26.682Z,11.18
2022-08-18T17:15:54.502Z,12.48
2022-08-18T17:18:22.323Z,11.15
2022-08-18T17:20:50.468Z,10.30
2022-08-18T17:23:18.947Z,11.85
2022-08-18T17:28:23.846Z,10.85
2022-08-18T17:30:54.505Z,10.88
2022-08-18T17:33:27.401Z,10.57
2022-08-18T17:35:58.533Z,11.07
2022-08-18T17:38:29.993Z,10.45
2022-08-18T17:40:59.010Z,10.95
2022-08-18T17:46:06.427Z,10.23
2022-08-18T17:48:40.989Z,10.15
2022-08-18T17:51:31.619Z,10.80
2022-08-18T17:54:01.362Z,12.30
2022-08-18T17:56:37.502Z,13.73
2022-08-18T17:59:42.958Z,10.20
2022-08-18T18:02:28.827Z,10.77
2022-08-18T18:07:29.424Z,14.55
2022-08-18T18:10:01.706Z,11.25
2022-08-18T18:12:32.194Z,10.98
2022-08-18T18:15:03.292Z,11.70
2022-08-18T18:17:37.581Z,11.48
2022-08-18T18:20:25.907Z,12.93
2022-08-18T18:22:53.775Z,11.38
2022-08-18T18:25:34.609Z,12.80
2022-08-18T18:30:32.888Z,11.60
2022-08-18T18:33:03.888Z,10.82
2022-08-18T18:35:34.102Z,11.07
2022-08-18T18:38:06.271Z,13.43
2022-08-18T18:40:37.981Z,12.77
2022-08-18T18:43:27.140Z,14.43
2022-08-18T18:46:07.425Z,15.40
2022-08-18T18:48:48.318Z,13.35
2022-08-18T18:51:33.500Z,13.75
2022-08-18T18:54:17.840Z,16.77
2022-08-18T18:56:52.093Z,14.32
2022-08-18T19:02:33.694Z,13.85
2022-08-18T19:05:16.683Z,13.68
2022-08-18T19:08:07.982Z,13.52
2022-08-18T19:10:41.631Z,18.17
2022-08-18T19:13:33.156Z,18.00
2022-08-18T19:16:23.445Z,21.50
2022-08-18T19:19:35.142Z,16.55
2022-08-18T19:22:05.277Z,20.55
2022-08-18T19:24:40.356Z,18.65
2022-08-18T19:27:23.441Z,18.73
2022-08-18T19:29:55.342Z,19.90
2022-08-18T19:32:32.247Z,20.10
2022-08-18T19:35:04.445Z,19.55
2022-08-18T19:37:56.262Z,19.23
2022-08-18T19:40:29.388Z,19.92
2022-08-18T19:43:10.716Z,24.05
2022-08-18T19:45:49.958Z,26.17
2022-08-18T19:48:23.470Z,21.75
2022-08-18T19:50:58.004Z,21.05
2022-08-18T19:53:53.695Z,22.77
2022-08-18T19:56:40.313Z,26.85
2022-08-18T20:02:22.575Z,23.10
2022-08-18T20:05:04.619Z,24.58
2022-08-18T20:08:02.106Z,28.58
2022-08-18T20:10:57.936Z,29.48
2022-08-18T20:13:35.296Z,23.83
2022-08-18T20:16:45.071Z,30.70
2022-08-18T20:20:03.725Z,25.08
2022-08-18T20:22:35.791Z,28.05
2022-08-18T20:25:26.061Z,27.60
2022-08-18T20:28:14.821Z,30.85
2022-08-18T20:30:55.544Z,28.75
2022-08-18T20:33:32.054Z,28.67
2022-08-18T20:36:14.999Z,27.52
2022-08-18T20:38:45.692Z,28.33
2022-08-18T20:41:47.501Z,30.92
2022-08-18T20:44:29.925Z,31.45
2022-08-18T20:47:14.317Z,26.40
2022-08-18T20:49:54.098Z,29.77
2022-08-18T20:52:34.732Z,28.02
2022-08-18T20:55:12.893Z,30.58
2022-08-18T21:00:14.945Z,31.02
2022-08-18T21:02:52.260Z,27.83
2022-08-18T21:05:27.668Z,32.72
2022-08-18T21:08:06.144Z,31.08
2022-08-18T21:10:35.358Z,30.38
2022-08-18T21:13:05.976Z,28.25
2022-08-18T21:15:37.141Z,28.67
2022-08-18T21:18:24.077Z,31.02
2022-08-18T21:20:54.720Z,29.95
2022-08-18T21:23:26.230Z,30.58
2022-08-18T21:25:58.023Z,31.05
2022-08-18T21:28:28.990Z,35.47
2022-08-18T21:31:42.438Z,33.97
2022-08-18T21:33:53.297Z,30.63
2022-08-18T21:36:23.402Z,32.10
2022-08-18T21:38:58.506Z,29.75
2022-08-18T21:41:36.019Z,37.35
2022-08-18T21:44:08.272Z,35.58
2022-08-18T21:46:36.339Z,31.55
2022-08-18T21:49:06.644Z,32.17
2022-08-18T21:51:46.805Z,30.90
2022-08-18T21:54:17.857Z,30.08
2022-08-18T21:56:45.869Z,28.20
2022-08-18T21:59:15.925Z,33.35
2022-08-18T22:01:52.176Z,33.28
2022-08-18T22:04:27.238Z,32.15
2022-08-18T22:06:58.278Z,35.65
2022-08-18T22:09:45.925Z,32.25
2022-08-18T22:12:40.892Z,30.95
2022-08-18T22:15:11.486Z,33.45
2022-08-18T22:17:50.724Z,36.55
2022-08-18T22:20:52.353Z,32.80
2022-08-18T22:23:55.412Z,36.95
2022-08-18T22:26:27.283Z,32.20
2022-08-18T22:31:45.028Z,35.08
2022-08-18T22:34:16.292Z,31.70
2022-08-18T22:36:49.483Z,33.88
2022-08-18T22:39:26.198Z,33.05
2022-08-18T22:41:54.722Z,33.58
2022-08-18T22:44:23.263Z,35.75
2022-08-18T22:46:52.701Z,34.97
2022-08-18T22:49:21.487Z,33.38
2022-08-18T22:51:52.288Z,35.63
2022-08-18T22:54:21.557Z,33.78
2022-08-18T22:56:54.087Z,33.35
2022-08-18T22:59:25.513Z,35.53
2022-08-18T23:01:56.191Z,30.60
2022-08-18T23:04:25.736Z,32.50
2022-08-18T23:06:55.794Z,32.92
2022-08-18T23:09:25.875Z,33.25
2022-08-18T23:11:56.361Z,38.45
2022-08-18T23:14:24.278Z,31.42
2022-08-18T23:16:52.775Z,30.83
2022-08-18T23:19:22.296Z,36.42
2022-08-18T23:21:51.741Z,31.48
2022-08-18T23:24:22.481Z,33.42
2022-08-18T23:26:50.662Z,33.63
2022-08-18T23:29:19.931Z,35.95
2022-08-18T23:31:49.490Z,35.15
2022-08-18T23:34:18.652Z,33.55
2022-08-18T23:36:52.285Z,30.95
2022-08-18T23:39:21.803Z,29.83
2022-08-18T23:41:50.526Z,33.33
2022-08-18T23:44:18.788Z,35.00
2022-08-18T23:46:47.261Z,30.35
2022-08-18T23:49:15.845Z,31.85
2022-08-18T23:51:47.025Z,33.10
2022-08-18T23:54:18.056Z,32.15
2022-08-18T23:56:47.768Z,28.73
2022-08-18T23:59:20.838Z,29.42
